sensor_id;sensor_type;location;lat;lon;timestamp;temperature;humidity
30399;DHT22;17195;50.838;7.214;2023-04-25T00:00:24;7.10;99.90
30399;DHT22;17195;50.838;7.214;2023-04-25T00:02:50;7.10;99.90
30399;DHT22;17195;50.838;7.214;2023-04-25T00:05:16;7.10;99.90
30399;DHT22;17195;50.838;7.214;2023-04-25T00:07:41;7.00;99.90
30399;DHT22;17195;50.838;7.214;2023-04-25T00:10:09;7.00;99.90
30399;DHT22;17195;50.838;7.214;2023-04-25T00:12:36;7.00;99.90
30399;DHT22;17195;50.838;7.214;2023-04-25T00:15:02;7.00;99.90
30399;DHT22;17195;50.838;7.214;2023-04-25T00:17:28;7.00;99.90
30399;DHT22;17195;50.838;7.214;2023-04-25T00:19:53;7.00;99.90
30399;DHT22;17195;50.838;7.214;2023-04-25T00:22:20;7.00;99.90
30399;DHT22;17195;50.838;7.214;2023-04-25T00:24:46;7.00;99.90
30399;DHT22;17195;50.838;7.214;2023-04-25T00:27:11;7.00;99.90
30399;DHT22;17195;50.838;7.214;2023-04-25T00:29:37;7.00;99.90
30399;DHT22;17195;50.838;7.214;2023-04-25T00:32:03;6.90;99.90
30399;DHT22;17195;50.838;7.214;2023-04-25T00:34:28;6.90;99.90
30399;DHT22;17195;50.838;7.214;2023-04-25T00:36:54;6.90;99.90
30399;DHT22;17195;50.838;7.214;2023-04-25T00:39:19;6.90;99.90
30399;DHT22;17195;50.838;7.214;2023-04-25T00:41:45;6.90;99.90
30399;DHT22;17195;50.838;7.214;2023-04-25T00:44:11;6.80;99.90
30399;DHT22;17195;50.838;7.214;2023-04-25T00:46:38;6.70;99.90
30399;DHT22;17195;50.838;7.214;2023-04-25T00:49:05;6.70;99.90
30399;DHT22;17195;50.838;7.214;2023-04-25T00:51:30;6.70;99.90
30399;DHT22;17195;50.838;7.214;2023-04-25T00:53:58;6.60;99.90
30399;DHT22;17195;50.838;7.214;2023-04-25T00:56:23;6.50;99.90
30399;DHT22;17195;50.838;7.214;2023-04-25T00:58:53;6.40;99.90
30399;DHT22;17195;50.838;7.214;2023-04-25T01:01:19;6.30;99.90
30399;DHT22;17195;50.838;7.214;2023-04-25T01:03:46;6.20;99.90
30399;DHT22;17195;50.838;7.214;2023-04-25T02:10:09;5.20;99.90
30399;DHT22;17195;50.838;7.214;2023-04-25T02:12:35;5.40;99.90
30399;DHT22;17195;50.838;7.214;2023-04-25T02:15:01;5.40;99.90
30399;DHT22;17195;50.838;7.214;2023-04-25T02:17:27;5.50;99.90
30399;DHT22;17195;50.838;7.214;2023-04-25T02:19:53;5.50;99.90
30399;DHT22;17195;50.838;7.214;2023-04-25T02:22:18;5.60;99.90
30399;DHT22;17195;50.838;7.214;2023-04-25T02:24:44;5.60;99.90
30399;DHT22;17195;50.838;7.214;2023-04-25T02:27:09;5.60;99.90
30399;DHT22;17195;50.838;7.214;2023-04-25T02:29:35;5.60;99.90
30399;DHT22;17195;50.838;7.214;2023-04-25T02:32:01;5.60;99.90
30399;DHT22;17195;50.838;7.214;2023-04-25T02:34:26;5.60;99.90
30399;DHT22;17195;50.838;7.214;2023-04-25T02:36:52;5.50;99.90
30399;DHT22;17195;50.838;7.214;2023-04-25T02:39:17;5.50;99.90
30399;DHT22;17195;50.838;7.214;2023-04-25T02:41:43;5.50;99.90
30399;DHT22;17195;50.838;7.214;2023-04-25T02:44:08;5.40;99.90
30399;DHT22;17195;50.838;7.214;2023-04-25T02:46:34;5.30;99.90
30399;DHT22;17195;50.838;7.214;2023-04-25T02:48:59;5.30;99.90
30399;DHT22;17195;50.838;7.214;2023-04-25T02:51:25;5.30;99.90
30399;DHT22;17195;50.838;7.214;2023-04-25T02:53:51;5.30;99.90
30399;DHT22;17195;50.838;7.214;2023-04-25T02:56:17;5.20;99.90
30399;DHT22;17195;50.838;7.214;2023-04-25T02:58:42;5.20;99.90
30399;DHT22;17195;50.838;7.214;2023-04-25T03:01:08;5.20;99.90
30399;DHT22;17195;50.838;7.214;2023-04-25T03:03:34;5.20;99.90
30399;DHT22;17195;50.838;7.214;2023-04-25T03:05:59;5.20;99.90
30399;DHT22;17195;50.838;7.214;2023-04-25T03:08:25;5.20;99.90
30399;DHT22;17195;50.838;7.214;2023-04-25T03:10:52;5.10;99.90
30399;DHT22;17195;50.838;7.214;2023-04-25T03:13:20;5.10;99.90
30399;DHT22;17195;50.838;7.214;2023-04-25T03:15:46;5.10;99.90
30399;DHT22;17195;50.838;7.214;2023-04-25T03:18:11;5.10;99.90
30399;DHT22;17195;50.838;7.214;2023-04-25T03:20:37;5.00;99.90
30399;DHT22;17195;50.838;7.214;2023-04-25T03:23:04;5.00;99.90
30399;DHT22;17195;50.838;7.214;2023-04-25T03:25:30;5.00;99.90
30399;DHT22;17195;50.838;7.214;2023-04-25T03:27:55;5.00;99.90
30399;DHT22;17195;50.838;7.214;2023-04-25T03:30:21;4.90;99.90
30399;DHT22;17195;50.838;7.214;2023-04-25T03:32:46;5.00;99.90
30399;DHT22;17195;50.838;7.214;2023-04-25T03:35:12;5.00;99.90
30399;DHT22;17195;50.838;7.214;2023-04-25T03:37:37;5.00;99.90
30399;DHT22;17195;50.838;7.214;2023-04-25T03:40:03;5.10;99.90
30399;DHT22;17195;50.838;7.214;2023-04-25T03:42:29;5.10;99.90
30399;DHT22;17195;50.838;7.214;2023-04-25T03:44:55;5.10;99.90
30399;DHT22;17195;50.838;7.214;2023-04-25T03:47:20;5.20;99.90
30399;DHT22;17195;50.838;7.214;2023-04-25T03:49:46;5.20;99.90
30399;DHT22;17195;50.838;7.214;2023-04-25T03:52:11;5.20;99.90
30399;DHT22;17195;50.838;7.214;2023-04-25T03:54:37;5.20;99.90
30399;DHT22;17195;50.838;7.214;2023-04-25T03:57:02;5.30;99.90
30399;DHT22;17195;50.838;7.214;2023-04-25T03:59:28;5.30;99.90
30399;DHT22;17195;50.838;7.214;2023-04-25T04:01:54;5.20;99.90
30399;DHT22;17195;50.838;7.214;2023-04-25T04:04:20;5.30;99.90
30399;DHT22;17195;50.838;7.214;2023-04-25T04:06:45;5.30;99.90
30399;DHT22;17195;50.838;7.214;2023-04-25T04:09:11;5.30;99.90
30399;DHT22;17195;50.838;7.214;2023-04-25T04:11:38;5.40;99.90
30399;DHT22;17195;50.838;7.214;2023-04-25T04:14:05;5.40;99.90
30399;DHT22;17195;50.838;7.214;2023-04-25T04:16:31;5.40;99.90
30399;DHT22;17195;50.838;7.214;2023-04-25T04:18:56;5.50;99.90
30399;DHT22;17195;50.838;7.214;2023-04-25T04:21:22;5.50;99.90
30399;DHT22;17195;50.838;7.214;2023-04-25T04:23:47;5.50;99.90
30399;DHT22;17195;50.838;7.214;2023-04-25T04:26:14;5.50;99.90
30399;DHT22;17195;50.838;7.214;2023-04-25T04:28:42;5.60;99.90
30399;DHT22;17195;50.838;7.214;2023-04-25T04:31:09;5.70;99.90
30399;DHT22;17195;50.838;7.214;2023-04-25T04:33:35;5.70;99.90
30399;DHT22;17195;50.838;7.214;2023-04-25T04:36:02;5.70;99.90
30399;DHT22;17195;50.838;7.214;2023-04-25T04:38:28;5.80;99.90
30399;DHT22;17195;50.838;7.214;2023-04-25T04:40:54;5.90;99.90
30399;DHT22;17195;50.838;7.214;2023-04-25T04:43:20;5.90;99.90
30399;DHT22;17195;50.838;7.214;2023-04-25T04:45:45;6.00;99.90
30399;DHT22;17195;50.838;7.214;2023-04-25T04:48:11;6.00;99.90
30399;DHT22;17195;50.838;7.214;2023-04-25T04:50:39;6.10;99.90
30399;DHT22;17195;50.838;7.214;2023-04-25T04:53:05;6.20;99.90
30399;DHT22;17195;50.838;7.214;2023-04-25T04:55:31;6.30;99.90
30399;DHT22;17195;50.838;7.214;2023-04-25T04:57:56;6.30;99.90
30399;DHT22;17195;50.838;7.214;2023-04-25T05:00:22;6.40;99.90
30399;DHT22;17195;50.838;7.214;2023-04-25T05:02:48;6.50;99.90
30399;DHT22;17195;50.838;7.214;2023-04-25T05:05:14;6.50;99.90
30399;DHT22;17195;50.838;7.214;2023-04-25T05:07:40;6.60;99.90
30399;DHT22;17195;50.838;7.214;2023-04-25T05:10:06;6.70;99.90
30399;DHT22;17195;50.838;7.214;2023-04-25T05:12:31;6.80;99.90
30399;DHT22;17195;50.838;7.214;2023-04-25T05:14:57;6.80;99.90
30399;DHT22;17195;50.838;7.214;2023-04-25T05:17:23;6.80;99.90
30399;DHT22;17195;50.838;7.214;2023-04-25T05:19:48;7.00;99.90
30399;DHT22;17195;50.838;7.214;2023-04-25T05:22:14;6.90;99.90
30399;DHT22;17195;50.838;7.214;2023-04-25T05:24:39;6.90;99.90
30399;DHT22;17195;50.838;7.214;2023-04-25T05:27:05;7.00;99.90
30399;DHT22;17195;50.838;7.214;2023-04-25T05:29:31;7.20;99.90
30399;DHT22;17195;50.838;7.214;2023-04-25T05:31:56;7.30;99.90
30399;DHT22;17195;50.838;7.214;2023-04-25T05:34:22;7.30;99.90
30399;DHT22;17195;50.838;7.214;2023-04-25T05:36:47;7.20;99.90
30399;DHT22;17195;50.838;7.214;2023-04-25T05:39:17;7.20;99.90
30399;DHT22;17195;50.838;7.214;2023-04-25T05:41:43;7.30;99.90
30399;DHT22;17195;50.838;7.214;2023-04-25T05:44:08;7.20;99.90
30399;DHT22;17195;50.838;7.214;2023-04-25T05:46:34;7.20;99.90
30399;DHT22;17195;50.838;7.214;2023-04-25T05:49:00;7.30;99.90
30399;DHT22;17195;50.838;7.214;2023-04-25T05:51:25;7.30;99.90
30399;DHT22;17195;50.838;7.214;2023-04-25T05:53:51;7.40;99.90
30399;DHT22;17195;50.838;7.214;2023-04-25T05:56:17;7.50;99.90
30399;DHT22;17195;50.838;7.214;2023-04-25T05:58:42;7.60;99.90
30399;DHT22;17195;50.838;7.214;2023-04-25T06:01:08;7.80;99.90
30399;DHT22;17195;50.838;7.214;2023-04-25T06:03:34;7.90;99.90
30399;DHT22;17195;50.838;7.214;2023-04-25T06:05:59;8.00;99.90
30399;DHT22;17195;50.838;7.214;2023-04-25T06:08:25;8.00;99.90
30399;DHT22;17195;50.838;7.214;2023-04-25T06:10:51;8.00;99.90
30399;DHT22;17195;50.838;7.214;2023-04-25T06:13:16;7.90;99.90
30399;DHT22;17195;50.838;7.214;2023-04-25T06:15:42;7.90;99.90
30399;DHT22;17195;50.838;7.214;2023-04-25T06:18:08;7.90;99.90
30399;DHT22;17195;50.838;7.214;2023-04-25T06:20:33;7.90;99.90
30399;DHT22;17195;50.838;7.214;2023-04-25T06:22:59;8.10;99.90
30399;DHT22;17195;50.838;7.214;2023-04-25T06:25:24;8.30;99.90
30399;DHT22;17195;50.838;7.214;2023-04-25T06:27:50;8.40;99.90
30399;DHT22;17195;50.838;7.214;2023-04-25T06:30:15;8.40;99.90
30399;DHT22;17195;50.838;7.214;2023-04-25T06:32:43;8.30;99.90
30399;DHT22;17195;50.838;7.214;2023-04-25T06:35:09;8.20;99.90
30399;DHT22;17195;50.838;7.214;2023-04-25T06:37:35;8.10;99.90
30399;DHT22;17195;50.838;7.214;2023-04-25T06:40:01;8.10;99.90
30399;DHT22;17195;50.838;7.214;2023-04-25T06:42:26;8.30;99.90
30399;DHT22;17195;50.838;7.214;2023-04-25T06:44:52;8.30;99.90
30399;DHT22;17195;50.838;7.214;2023-04-25T06:47:17;8.20;99.90
30399;DHT22;17195;50.838;7.214;2023-04-25T06:49:43;8.10;99.90
30399;DHT22;17195;50.838;7.214;2023-04-25T06:52:08;8.00;99.90
30399;DHT22;17195;50.838;7.214;2023-04-25T06:54:34;8.10;99.90
30399;DHT22;17195;50.838;7.214;2023-04-25T06:56:59;8.10;99.90
30399;DHT22;17195;50.838;7.214;2023-04-25T06:59:26;8.10;99.90
30399;DHT22;17195;50.838;7.214;2023-04-25T07:01:52;8.10;99.90
30399;DHT22;17195;50.838;7.214;2023-04-25T07:04:17;8.10;99.90
30399;DHT22;17195;50.838;7.214;2023-04-25T07:06:43;8.20;99.90
30399;DHT22;17195;50.838;7.214;2023-04-25T07:09:09;8.30;99.90
30399;DHT22;17195;50.838;7.214;2023-04-25T07:11:37;8.40;99.90
30399;DHT22;17195;50.838;7.214;2023-04-25T07:14:03;8.50;99.90
30399;DHT22;17195;50.838;7.214;2023-04-25T07:16:29;8.60;99.90
30399;DHT22;17195;50.838;7.214;2023-04-25T07:18:54;8.60;99.90
30399;DHT22;17195;50.838;7.214;2023-04-25T07:21:20;8.60;99.90
30399;DHT22;17195;50.838;7.214;2023-04-25T07:23:46;8.60;99.90
30399;DHT22;17195;50.838;7.214;2023-04-25T07:26:12;8.70;99.90
30399;DHT22;17195;50.838;7.214;2023-04-25T07:28:37;8.90;99.90
30399;DHT22;17195;50.838;7.214;2023-04-25T07:31:03;8.90;99.90
30399;DHT22;17195;50.838;7.214;2023-04-25T07:33:29;9.10;99.90
30399;DHT22;17195;50.838;7.214;2023-04-25T07:35:55;9.20;99.90
30399;DHT22;17195;50.838;7.214;2023-04-25T07:38:21;9.20;99.90
30399;DHT22;17195;50.838;7.214;2023-04-25T07:40:48;9.40;99.90
30399;DHT22;17195;50.838;7.214;2023-04-25T07:43:13;9.50;99.90
30399;DHT22;17195;50.838;7.214;2023-04-25T07:45:42;9.70;99.90
30399;DHT22;17195;50.838;7.214;2023-04-25T07:48:08;9.70;99.90
30399;DHT22;17195;50.838;7.214;2023-04-25T07:50:33;9.80;99.90
30399;DHT22;17195;50.838;7.214;2023-04-25T07:52:59;9.90;99.90
30399;DHT22;17195;50.838;7.214;2023-04-25T07:55:24;9.90;99.90
30399;DHT22;17195;50.838;7.214;2023-04-25T07:57:50;9.80;99.90
30399;DHT22;17195;50.838;7.214;2023-04-25T08:00:16;9.70;99.90
30399;DHT22;17195;50.838;7.214;2023-04-25T08:02:41;9.80;99.90
30399;DHT22;17195;50.838;7.214;2023-04-25T08:05:07;9.70;99.90
30399;DHT22;17195;50.838;7.214;2023-04-25T08:07:37;9.60;99.90
30399;DHT22;17195;50.838;7.214;2023-04-25T08:10:03;9.50;99.90
30399;DHT22;17195;50.838;7.214;2023-04-25T08:12:28;9.40;99.90
30399;DHT22;17195;50.838;7.214;2023-04-25T08:14:54;9.30;99.90
30399;DHT22;17195;50.838;7.214;2023-04-25T08:17:19;9.30;99.90
30399;DHT22;17195;50.838;7.214;2023-04-25T08:19:45;9.20;99.90
30399;DHT22;17195;50.838;7.214;2023-04-25T08:22:10;9.20;99.90
30399;DHT22;17195;50.838;7.214;2023-04-25T08:24:36;9.40;99.90
30399;DHT22;17195;50.838;7.214;2023-04-25T08:27:02;9.50;99.90
30399;DHT22;17195;50.838;7.214;2023-04-25T08:29:27;9.70;99.90
30399;DHT22;17195;50.838;7.214;2023-04-25T08:31:53;9.90;99.90
30399;DHT22;17195;50.838;7.214;2023-04-25T08:34:19;10.10;99.90
30399;DHT22;17195;50.838;7.214;2023-04-25T08:36:45;10.40;99.90
30399;DHT22;17195;50.838;7.214;2023-04-25T08:39:11;10.60;99.90
30399;DHT22;17195;50.838;7.214;2023-04-25T08:41:37;10.80;99.90
30399;DHT22;17195;50.838;7.214;2023-04-25T08:44:03;10.70;99.90
30399;DHT22;17195;50.838;7.214;2023-04-25T08:46:30;10.70;99.90
30399;DHT22;17195;50.838;7.214;2023-04-25T08:49:00;10.70;99.90
30399;DHT22;17195;50.838;7.214;2023-04-25T08:51:26;10.60;99.90
30399;DHT22;17195;50.838;7.214;2023-04-25T08:53:53;10.70;99.90
30399;DHT22;17195;50.838;7.214;2023-04-25T08:56:19;10.80;99.90
30399;DHT22;17195;50.838;7.214;2023-04-25T08:58:51;10.80;99.90
30399;DHT22;17195;50.838;7.214;2023-04-25T09:01:17;10.60;99.90
30399;DHT22;17195;50.838;7.214;2023-04-25T09:03:44;10.60;99.90
30399;DHT22;17195;50.838;7.214;2023-04-25T09:06:11;10.70;99.90
30399;DHT22;17195;50.838;7.214;2023-04-25T09:08:37;10.90;99.90
30399;DHT22;17195;50.838;7.214;2023-04-25T09:11:03;10.90;99.90
30399;DHT22;17195;50.838;7.214;2023-04-25T09:13:28;10.80;99.90
30399;DHT22;17195;50.838;7.214;2023-04-25T09:15:56;10.80;99.90
30399;DHT22;17195;50.838;7.214;2023-04-25T09:20:53;10.20;99.90
30399;DHT22;17195;50.838;7.214;2023-04-25T09:23:20;10.20;99.90
30399;DHT22;17195;50.838;7.214;2023-04-25T09:25:48;9.90;99.90
30399;DHT22;17195;50.838;7.214;2023-04-25T09:28:14;9.90;99.90
30399;DHT22;17195;50.838;7.214;2023-04-25T09:30:39;10.10;99.90
30399;DHT22;17195;50.838;7.214;2023-04-25T09:33:06;10.10;99.90
30399;DHT22;17195;50.838;7.214;2023-04-25T09:35:37;10.10;99.90
30399;DHT22;17195;50.838;7.214;2023-04-25T09:38:14;10.10;99.90
30399;DHT22;17195;50.838;7.214;2023-04-25T09:40:41;10.00;99.90
30399;DHT22;17195;50.838;7.214;2023-04-25T09:43:25;10.00;99.90
30399;DHT22;17195;50.838;7.214;2023-04-25T09:45:53;10.00;99.90
30399;DHT22;17195;50.838;7.214;2023-04-25T09:48:24;9.80;99.90
30399;DHT22;17195;50.838;7.214;2023-04-25T09:51:11;9.70;99.90
30399;DHT22;17195;50.838;7.214;2023-04-25T09:53:43;9.80;99.90
30399;DHT22;17195;50.838;7.214;2023-04-25T09:56:10;10.00;99.90
30399;DHT22;17195;50.838;7.214;2023-04-25T09:58:38;10.30;99.90
30399;DHT22;17195;50.838;7.214;2023-04-25T10:01:05;10.50;99.90
30399;DHT22;17195;50.838;7.214;2023-04-25T10:03:36;10.80;99.90
30399;DHT22;17195;50.838;7.214;2023-04-25T10:06:05;10.90;99.90
30399;DHT22;17195;50.838;7.214;2023-04-25T10:08:34;11.20;99.90
30399;DHT22;17195;50.838;7.214;2023-04-25T10:11:01;11.40;99.90
30399;DHT22;17195;50.838;7.214;2023-04-25T10:13:29;11.60;99.90
30399;DHT22;17195;50.838;7.214;2023-04-25T10:15:57;11.60;99.90
30399;DHT22;17195;50.838;7.214;2023-04-25T10:18:24;11.30;99.90
30399;DHT22;17195;50.838;7.214;2023-04-25T10:20:50;11.50;99.80
30399;DHT22;17195;50.838;7.214;2023-04-25T10:23:16;11.50;99.50
30399;DHT22;17195;50.838;7.214;2023-04-25T10:25:42;11.50;99.90
30399;DHT22;17195;50.838;7.214;2023-04-25T10:28:08;11.70;99.90
30399;DHT22;17195;50.838;7.214;2023-04-25T10:30:34;11.50;99.90
30399;DHT22;17195;50.838;7.214;2023-04-25T10:32:59;11.50;99.90
30399;DHT22;17195;50.838;7.214;2023-04-25T10:35:26;11.10;99.90
30399;DHT22;17195;50.838;7.214;2023-04-25T10:38:10;10.90;99.80
30399;DHT22;17195;50.838;7.214;2023-04-25T10:40:36;10.50;99.70
30399;DHT22;17195;50.838;7.214;2023-04-25T10:43:33;10.10;99.90
30399;DHT22;17195;50.838;7.214;2023-04-25T10:46:00;10.20;99.90
30399;DHT22;17195;50.838;7.214;2023-04-25T10:48:30;10.10;99.90
30399;DHT22;17195;50.838;7.214;2023-04-25T10:51:09;10.10;99.90
30399;DHT22;17195;50.838;7.214;2023-04-25T10:53:34;10.20;99.90
30399;DHT22;17195;50.838;7.214;2023-04-25T10:56:00;10.30;99.90
30399;DHT22;17195;50.838;7.214;2023-04-25T10:58:26;10.50;99.90
30399;DHT22;17195;50.838;7.214;2023-04-25T11:00:52;10.60;99.90
30399;DHT22;17195;50.838;7.214;2023-04-25T11:03:17;10.90;99.90
30399;DHT22;17195;50.838;7.214;2023-04-25T11:05:47;11.00;99.90
30399;DHT22;17195;50.838;7.214;2023-04-25T11:08:21;11.10;99.90
30399;DHT22;17195;50.838;7.214;2023-04-25T11:10:51;11.30;99.90
30399;DHT22;17195;50.838;7.214;2023-04-25T11:13:16;11.50;99.90
30399;DHT22;17195;50.838;7.214;2023-04-25T11:15:45;11.40;99.40
30399;DHT22;17195;50.838;7.214;2023-04-25T11:18:16;11.80;97.90
30399;DHT22;17195;50.838;7.214;2023-04-25T11:20:43;12.30;97.30
30399;DHT22;17195;50.838;7.214;2023-04-25T11:23:08;12.50;96.30
30399;DHT22;17195;50.838;7.214;2023-04-25T11:25:34;12.60;96.00
30399;DHT22;17195;50.838;7.214;2023-04-25T11:28:00;12.50;96.10
30399;DHT22;17195;50.838;7.214;2023-04-25T11:30:27;12.20;95.30
30399;DHT22;17195;50.838;7.214;2023-04-25T11:32:54;11.60;96.90
30399;DHT22;17195;50.838;7.214;2023-04-25T11:35:20;11.30;95.60
30399;DHT22;17195;50.838;7.214;2023-04-25T11:37:48;11.20;96.40
30399;DHT22;17195;50.838;7.214;2023-04-25T11:40:14;11.20;96.10
30399;DHT22;17195;50.838;7.214;2023-04-25T11:42:46;11.20;95.70
30399;DHT22;17195;50.838;7.214;2023-04-25T11:45:13;11.20;95.90
30399;DHT22;17195;50.838;7.214;2023-04-25T11:47:39;11.30;95.50
30399;DHT22;17195;50.838;7.214;2023-04-25T11:50:07;11.40;95.60
30399;DHT22;17195;50.838;7.214;2023-04-25T11:52:39;11.70;95.40
30399;DHT22;17195;50.838;7.214;2023-04-25T11:55:07;11.70;95.00
30399;DHT22;17195;50.838;7.214;2023-04-25T11:57:33;11.80;95.30
30399;DHT22;17195;50.838;7.214;2023-04-25T12:00:15;12.00;94.50
30399;DHT22;17195;50.838;7.214;2023-04-25T12:02:52;12.30;94.20
30399;DHT22;17195;50.838;7.214;2023-04-25T12:05:18;12.40;94.10
30399;DHT22;17195;50.838;7.214;2023-04-25T12:07:46;12.40;92.50
30399;DHT22;17195;50.838;7.214;2023-04-25T12:10:13;12.40;92.50
30399;DHT22;17195;50.838;7.214;2023-04-25T12:12:44;12.30;92.80
30399;DHT22;17195;50.838;7.214;2023-04-25T12:15:11;12.20;92.30
30399;DHT22;17195;50.838;7.214;2023-04-25T12:17:41;12.00;92.70
30399;DHT22;17195;50.838;7.214;2023-04-25T12:20:16;12.00;93.20
30399;DHT22;17195;50.838;7.214;2023-04-25T12:22:44;12.20;92.10
30399;DHT22;17195;50.838;7.214;2023-04-25T12:25:13;12.30;92.90
30399;DHT22;17195;50.838;7.214;2023-04-25T12:27:40;12.50;92.40
30399;DHT22;17195;50.838;7.214;2023-04-25T12:30:09;12.50;91.90
30399;DHT22;17195;50.838;7.214;2023-04-25T12:32:36;12.60;90.40
30399;DHT22;17195;50.838;7.214;2023-04-25T12:35:03;12.70;89.60
30399;DHT22;17195;50.838;7.214;2023-04-25T12:37:29;13.00;90.10
30399;DHT22;17195;50.838;7.214;2023-04-25T12:39:56;13.20;89.70
30399;DHT22;17195;50.838;7.214;2023-04-25T12:42:21;13.40;90.90
30399;DHT22;17195;50.838;7.214;2023-04-25T12:44:47;13.60;89.80
30399;DHT22;17195;50.838;7.214;2023-04-25T12:47:12;12.90;88.50
30399;DHT22;17195;50.838;7.214;2023-04-25T12:49:39;12.80;89.40
30399;DHT22;17195;50.838;7.214;2023-04-25T12:52:04;12.70;90.10
30399;DHT22;17195;50.838;7.214;2023-04-25T12:54:30;13.00;88.60
30399;DHT22;17195;50.838;7.214;2023-04-25T12:56:56;13.10;86.90
30399;DHT22;17195;50.838;7.214;2023-04-25T12:59:22;13.10;87.40
30399;DHT22;17195;50.838;7.214;2023-04-25T13:01:48;13.10;86.90
30399;DHT22;17195;50.838;7.214;2023-04-25T13:04:13;13.30;85.30
30399;DHT22;17195;50.838;7.214;2023-04-25T13:06:39;13.20;81.70
30399;DHT22;17195;50.838;7.214;2023-04-25T13:09:05;13.30;83.40
30399;DHT22;17195;50.838;7.214;2023-04-25T13:11:31;13.60;82.70
30399;DHT22;17195;50.838;7.214;2023-04-25T13:13:57;13.30;78.50
30399;DHT22;17195;50.838;7.214;2023-04-25T13:16:22;13.20;80.70
30399;DHT22;17195;50.838;7.214;2023-04-25T13:18:48;13.40;79.40
30399;DHT22;17195;50.838;7.214;2023-04-25T13:21:14;13.70;79.70
30399;DHT22;17195;50.838;7.214;2023-04-25T13:23:40;13.90;79.10
30399;DHT22;17195;50.838;7.214;2023-04-25T13:26:07;13.90;79.10
30399;DHT22;17195;50.838;7.214;2023-04-25T13:28:32;14.00;77.80
30399;DHT22;17195;50.838;7.214;2023-04-25T13:30:58;13.30;77.90
30399;DHT22;17195;50.838;7.214;2023-04-25T13:33:24;13.10;80.50
30399;DHT22;17195;50.838;7.214;2023-04-25T13:35:51;13.00;79.80
30399;DHT22;17195;50.838;7.214;2023-04-25T13:38:21;12.70;79.60
30399;DHT22;17195;50.838;7.214;2023-04-25T13:40:48;12.50;79.00
30399;DHT22;17195;50.838;7.214;2023-04-25T13:43:13;12.50;81.30
30399;DHT22;17195;50.838;7.214;2023-04-25T13:45:39;12.60;82.80
30399;DHT22;17195;50.838;7.214;2023-04-25T13:48:05;12.70;82.50
30399;DHT22;17195;50.838;7.214;2023-04-25T13:50:30;12.70;81.20
30399;DHT22;17195;50.838;7.214;2023-04-25T13:52:57;12.50;81.50
30399;DHT22;17195;50.838;7.214;2023-04-25T13:55:22;12.40;81.60
30399;DHT22;17195;50.838;7.214;2023-04-25T13:57:48;12.30;80.30
30399;DHT22;17195;50.838;7.214;2023-04-25T14:00:14;12.30;80.40
30399;DHT22;17195;50.838;7.214;2023-04-25T14:02:39;12.30;80.10
30399;DHT22;17195;50.838;7.214;2023-04-25T14:05:05;12.30;78.90
30399;DHT22;17195;50.838;7.214;2023-04-25T14:07:33;12.40;77.30
30399;DHT22;17195;50.838;7.214;2023-04-25T14:10:00;12.50;78.10
30399;DHT22;17195;50.838;7.214;2023-04-25T14:12:26;12.70;77.70
30399;DHT22;17195;50.838;7.214;2023-04-25T14:14:51;12.50;77.10
30399;DHT22;17195;50.838;7.214;2023-04-25T14:17:18;12.80;78.50
30399;DHT22;17195;50.838;7.214;2023-04-25T14:19:44;13.00;78.20
30399;DHT22;17195;50.838;7.214;2023-04-25T14:22:11;13.20;74.40
30399;DHT22;17195;50.838;7.214;2023-04-25T14:24:36;13.60;75.40
30399;DHT22;17195;50.838;7.214;2023-04-25T14:27:02;13.30;75.20
30399;DHT22;17195;50.838;7.214;2023-04-25T14:29:28;13.10;75.80
30399;DHT22;17195;50.838;7.214;2023-04-25T14:31:53;12.90;75.80
30399;DHT22;17195;50.838;7.214;2023-04-25T14:34:19;12.70;77.40
30399;DHT22;17195;50.838;7.214;2023-04-25T14:36:45;12.90;77.70
30399;DHT22;17195;50.838;7.214;2023-04-25T14:39:12;13.40;75.90
30399;DHT22;17195;50.838;7.214;2023-04-25T14:41:39;13.80;77.20
30399;DHT22;17195;50.838;7.214;2023-04-25T14:44:04;14.00;76.70
30399;DHT22;17195;50.838;7.214;2023-04-25T14:46:30;14.80;76.00
30399;DHT22;17195;50.838;7.214;2023-04-25T14:48:56;15.30;70.20
30399;DHT22;17195;50.838;7.214;2023-04-25T14:51:21;15.60;70.20
30399;DHT22;17195;50.838;7.214;2023-04-25T14:53:47;15.60;72.70
30399;DHT22;17195;50.838;7.214;2023-04-25T14:56:12;15.60;73.00
30399;DHT22;17195;50.838;7.214;2023-04-25T14:58:39;15.40;71.60
30399;DHT22;17195;50.838;7.214;2023-04-25T15:01:05;15.40;71.80
30399;DHT22;17195;50.838;7.214;2023-04-25T15:03:32;15.00;73.30
30399;DHT22;17195;50.838;7.214;2023-04-25T15:05:57;14.60;73.50
30399;DHT22;17195;50.838;7.214;2023-04-25T15:08:23;14.30;73.90
30399;DHT22;17195;50.838;7.214;2023-04-25T15:10:49;14.00;74.90
30399;DHT22;17195;50.838;7.214;2023-04-25T15:13:15;13.50;75.30
30399;DHT22;17195;50.838;7.214;2023-04-25T15:15:41;13.30;76.80
30399;DHT22;17195;50.838;7.214;2023-04-25T15:18:06;13.20;76.80
30399;DHT22;17195;50.838;7.214;2023-04-25T15:20:32;13.50;78.10
30399;DHT22;17195;50.838;7.214;2023-04-25T15:22:57;13.90;78.00
30399;DHT22;17195;50.838;7.214;2023-04-25T15:25:23;14.70;73.90
30399;DHT22;17195;50.838;7.214;2023-04-25T15:27:49;16.50;72.50
30399;DHT22;17195;50.838;7.214;2023-04-25T15:30:17;19.90;65.20
30399;DHT22;17195;50.838;7.214;2023-04-25T15:32:46;23.20;56.90
30399;DHT22;17195;50.838;7.214;2023-04-25T15:35:12;24.70;44.90
30399;DHT22;17195;50.838;7.214;2023-04-25T15:37:38;21.30;45.80
30399;DHT22;17195;50.838;7.214;2023-04-25T15:40:08;19.30;48.10
30399;DHT22;17195;50.838;7.214;2023-04-25T15:45:08;17.60;53.00
30399;DHT22;17195;50.838;7.214;2023-04-25T15:47:34;19.50;50.60
30399;DHT22;17195;50.838;7.214;2023-04-25T15:50:01;20.80;48.90
30399;DHT22;17195;50.838;7.214;2023-04-25T15:52:26;20.20;48.70
30399;DHT22;17195;50.838;7.214;2023-04-25T15:54:52;21.40;49.00
30399;DHT22;17195;50.838;7.214;2023-04-25T15:57:19;24.10;46.40
30399;DHT22;17195;50.838;7.214;2023-04-25T15:59:44;26.40;42.30
30399;DHT22;17195;50.838;7.214;2023-04-25T16:02:13;28.40;37.90
30399;DHT22;17195;50.838;7.214;2023-04-25T16:04:38;28.50;35.80
30399;DHT22;17195;50.838;7.214;2023-04-25T16:07:04;28.70;33.80
30399;DHT22;17195;50.838;7.214;2023-04-25T16:09:30;30.60;32.00
30399;DHT22;17195;50.838;7.214;2023-04-25T16:11:56;30.40;29.50
30399;DHT22;17195;50.838;7.214;2023-04-25T16:14:22;30.30;28.70
30399;DHT22;17195;50.838;7.214;2023-04-25T16:16:47;30.90;28.30
30399;DHT22;17195;50.838;7.214;2023-04-25T16:19:13;29.90;27.60
30399;DHT22;17195;50.838;7.214;2023-04-25T16:21:38;29.80;28.30
30399;DHT22;17195;50.838;7.214;2023-04-25T16:24:04;28.80;28.10
30399;DHT22;17195;50.838;7.214;2023-04-25T16:26:30;25.40;31.00
30399;DHT22;17195;50.838;7.214;2023-04-25T16:28:55;22.60;34.30
30399;DHT22;17195;50.838;7.214;2023-04-25T16:31:21;20.30;37.80
30399;DHT22;17195;50.838;7.214;2023-04-25T16:33:46;17.80;42.90
30399;DHT22;17195;50.838;7.214;2023-04-25T16:36:12;16.70;46.30
30399;DHT22;17195;50.838;7.214;2023-04-25T16:38:38;16.00;48.70
30399;DHT22;17195;50.838;7.214;2023-04-25T16:41:06;15.40;51.60